WEATHER DATA

TODAY
Time Temp. Dewp. Hum. Wind dir Wind speed Wind gust Bar. 1h Prec. 24h Prec.
00:03 26.5 16.4 54 191 0.6 1.4 1014.9 0.0000 0.0000
00:13 26.4 16.6 55 180 0.6 1.1 1014.9 0.0000 0.0000
00:23 26.3 16.5 55 186 0.3 0.8 1014.8 0.0000 0.0000
00:33 26.2 16.5 55 188 0.6 1.1 1014.7 0.0000 0.0000
00:43 26.1 16.6 56 184 0.3 0.8 1014.8 0.0000 0.0000
00:54 26 16.5 56 185 0.3 0.8 1014.7 0.0000 0.0000
01:03 25.9 16.5 56 201 0.3 1.4 1014.7 0.0000 0.0000
01:13 25.7 16.8 58 163 0.3 0.8 1014.5 0.0000 0.0000
01:23 25.6 17 59 171 0.6 1.4 1014.4 0.0000 0.0000
01:34 25.5 17.2 60 172 0.3 0.8 1014.3 0.0000 0.0000
01:43 25.4 17.1 60 205 0.3 0.8 1014.2 0.0000 0.0000
01:53 25.3 17 60 196 0.3 1.1 1014.2 0.0000 0.0000
02:04 25.2 16.9 60 159 0.3 0.8 1014.3 0.0000 0.0000
02:14 25.2 16.9 60 161 0.3 0.8 1014.2 0.0000 0.0000
02:23 25.1 16.8 60 142 0.3 0.8 1014.4 0.0000 0.0000
02:33 25 16.7 60 142 0.6 1.1 1014.3 0.0000 0.0000
02:44 24.9 16.6 60 150 0.6 1.1 1014.3 0.0000 0.0000
02:53 24.9 16.6 60 152 0.6 1.4 1014.4 0.0000 0.0000
03:03 24.8 16.5 60 149 0.6 1.4 1014.5 0.0000 0.0000
03:14 24.7 16.4 60 145 0.6 1.1 1014.4 0.0000 0.0000
03:24 24.6 16.3 60 142 0.8 1.4 1014.5 0.0000 0.0000
03:33 24.5 16.5 61 149 0.6 1.4 1014.4 0.0000 0.0000
03:44 24.5 16.2 60 142 0.6 1.4 1014.3 0.0000 0.0000
03:54 24.4 16.4 61 144 0.8 1.7 1014.3 0.0000 0.0000
04:04 24.4 16.4 61 142 0.6 1.7 1014.3 0.0000 0.0000
04:13 24.4 16.4 61 138 0.8 1.7 1014.2 0.0000 0.0000
04:24 24.3 16.3 61 141 0.6 1.4 1014.1 0.0000 0.0000
04:34 24.3 16.3 61 135 0.6 1.4 1014.2 0.0000 0.0000
04:44 24.3 16.3 61 143 0.6 1.4 1014.3 0.0000 0.0000
04:54 24.2 16.2 61 135 0.6 1.1 1014.3 0.0000 0.0000
05:04 24.2 16.2 61 147 0.6 1.1 1014.5 0.0000 0.0000
05:14 24.1 16.1 61 143 0.6 1.1 1014.7 0.0000 0.0000
05:23 24.1 16.4 62 149 0.6 0.8 1014.9 0.0000 0.0000
05:34 24 16.3 62 142 0.3 0.8 1014.9 0.0000 0.0000
05:44 24 16.3 62 147 0.6 1.1 1014.8 0.0000 0.0000
05:54 24 16.5 63 155 0.3 0.8 1014.8 0.0000 0.0000
06:04 24.1 16.6 63 168 0.3 0.8 1014.8 0.0000 0.0000
06:14 24.1 16.9 64 203 0.3 0.6 1015 0.0000 0.0000
06:24 24.5 17 63 176 0.3 0.6 1015.1 0.0000 0.0000
06:34 25.6 17.8 62 154 0.3 0.8 1015 0.0000 0.0000
06:44 27.2 18.5 59 135 0.3 0.8 1015.2 0.0000 0.0000
06:54 28.6 19.3 57 166 0.3 0.8 1015.2 0.0000 0.0000
07:04 30.1 19.5 53 159 0.3 0.8 1015.4 0.0000 0.0000
07:14 31.2 19.9 51 165 0.6 1.1 1015.4 0.0000 0.0000
07:24 32.4 20.3 49 225 0.6 1.4 1015.4 0.0000 0.0000
07:34 33.6 20.7 47 233 0.6 1.4 1015.4 0.0000 0.0000
07:44 34.6 20.9 45 236 0.6 1.7 1015.4 0.0000 0.0000
07:54 35.4 21.3 44 231 0.6 1.4 1015.5 0.0000 0.0000
08:04 36 21.1 42 221 0.6 1.7 1015.5 0.0000 0.0000
08:14 36.4 20.6 40 191 0.6 1.4 1015.5 0.0000 0.0000
08:25 36.9 21.5 41 289 0.6 1.4 1015.6 0.0000 0.0000
08:34 37.4 21.9 41 219 0.6 1.4 1015.5 0.0000 0.0000
08:44 37.7 22.2 41 240 0.6 1.7 1015.5 0.0000 0.0000
08:55 38 20.8 37 200 0.8 2.2 1015.5 0.0000 0.0000
09:04 38 21.6 39 257 0.8 2.2 1015.6 0.0000 0.0000
09:14 37.9 20.7 37 253 0.8 1.9 1015.7 0.0000 0.0000
09:24 37.8 21.5 39 286 0.6 1.4 1015.7 0.0000 0.0000
09:35 38.1 21.3 38 315 0.8 2.2 1015.7 0.0000 0.0000
09:44 38.6 21.3 37 325 0.6 1.9 1015.7 0.0000 0.0000
09:54 38.3 20.6 36 338 0.6 1.9 1015.8 0.0000 0.0000
10:05 38.6 20.9 36 304 0.6 1.9 1015.8 0.0000 0.0000
10:15 38.9 21.1 36 302 0.6 1.7 1015.9 0.0000 0.0000
10:24 38.7 20.5 35 291 0.6 1.4 1015.9 0.0000 0.0000
10:34 39.1 20.8 35 270 0.6 1.9 1015.9 0.0000 0.0000
10:45 39.3 21.5 36 201 1.1 2.5 1016.1 0.0000 0.0000
10:54 39.4 21.6 36 320 0.8 2.2 1015.8 0.0000 0.0000
11:04 39.6 21.7 36 270 0.8 1.9 1015.8 0.0000 0.0000
11:15 39.7 21.8 36 270 0.8 2.2 1015.8 0.0000 0.0000
11:25 40 21.1 34 225 0.8 2.5 1015.7 0.0000 0.0000
11:34 40.1 19.7 31 354 0.8 1.9 1015.5 0.0000 0.0000
11:45 40 20.7 33 333 0.6 1.7 1015.4 0.0000 0.0000
11:55 40.4 21.5 34 225 1.4 3.9 1015.2 0.0000 0.0000
12:05 40.5 21.1 33 236 1.4 4.4 1015.1 0.0000 0.0000
12:14 40.7 21.3 33 221 1.7 3.6 1015.1 0.0000 0.0000
12:25 41 21.5 33 225 1.4 3.9 1014.9 0.0000 0.0000
12:35 41.1 21.1 32 214 1.4 3.1 1015 0.0000 0.0000
12:45 41.3 20.8 31 228 1.1 3.6 1014.7 0.0000 0.0000
12:55 39.5 23.4 40 214 1.1 1.9 1014.7 0.0000 0.0000
13:05 38.4 22.4 40 215 0.8 1.9 1014.7 0.0000 0.0000
13:15 38.5 21.2 37 270 0.8 2.2 1014.4 0.0000 0.0000
13:25 38.8 21 36 225 0.8 3.1 1014.2 0.0000 0.0000
13:35 38.6 20.4 35 270 0.6 2.5 1014.2 0.0000 0.0000
13:45 37.7 20.1 36 223 0.8 2.5 1014.3 0.0000 0.0000
13:55 36.9 19.4 36 228 1.1 2.8 1014.4 0.0000 0.0000
14:06 36.5 19.5 37 233 0.8 1.9 1014.2 0.0000 0.0000
14:15 36.1 19.1 37 235 0.8 3.1 1014.1 0.0000 0.0000
14:25 35.4 18.9 38 249 0.6 1.4 1013.5 0.0000 0.0000
14:35 34.6 18.2 38 237 0.6 2.2 1014.2 0.0000 0.0000
14:46 33.9 18.4 40 285 0.8 3.3 1013.9 0.1185 0.1000
14:55 33.1 19.9 46 226 1.1 2.5 1013.9 0.1185 0.1000
15:05 31.8 18.4 45 206 1.4 2.8 1013.7 0.2371 0.2000
15:16 30.8 18.2 47 182 0.8 1.7 1013.7 0.2371 0.2000
15:26 30.1 18.2 49 162 0.8 1.7 1013.5 0.2371 0.2000
15:35 29.6 17.8 49 187 0.8 1.7 1013 0.1185 0.2000
15:45 29.3 18.1 51 181 0.8 1.9 1012.9 0.1185 0.2000
15:56 29 18.2 52 165 0.6 1.9 1013 0.1185 0.2000
16:05 28.8 18 52 160 0.8 1.7 1013.2 0.0000 0.2000
16:15 28.6 17.8 52 157 0.8 1.9 1013.4 0.0000 0.2000
16:26 28.5 17.7 52 186 0.6 1.4 1013.4 0.0000 0.2000
16:36 28.5 18 53 199 0.6 1.1 1013 0.0000 0.2000
16:45 28.5 18 53 165 0.6 1.4 1013.1 0.0000 0.2000
16:56 28.6 18.4 54 174 0.3 1.1 1013.2 0.0000 0.2000

DAY STATISTIC

2018-07-20
TEMPERATURE
AVERAGE
31.5
HIGH
41.3
12:45
LOW
24.0
05:34
PRESSURE
AVERAGE
1014.7
HIGH
1016.1
10:45
LOW
1012.9
15:45
DEWPOINT
AVERAGE
18.8
HIGH
23.4
12:55
LOW
16.1
05:14
HUMIDITY
AVERAGE
49
HIGH
64
06:14
LOW
31
11:34
WIND SPEED
AVERAGE
0.7
HIGH
1.7
12:14
WIND GUST
AVERAGE
1.7
HIGH
4.4
12:05
WIND DIRECTION
PREVAILING
S
31.4%
N
2.0
NE
0.0
E
0.0
SE
24.5
S
31.4
SW
24.5
W
11.8
NW
5.9
PRECIPITATION
RAIN HOUR
0.2
RAIN DAY
0.2
TEMPERATURE (°C)
LOW
24.0
HIGH
41.3
AVERAGE
31.5
PRESSURE (hpa)
LOW
1012.9
HIGH
1016.1
AVERAGE
1014.7
DEVICE